Time;durP1;ratioP1;P1;durP2;ratioP2;P2;SDS_P1;SDS_P2;PMS_P1;PMS_P2;Temp;Humidity;BMP_temperature;BMP_pressure;BME280_temperature;BME280_humidity;BME280_pressure;Samples;Min_cycle;Max_cycle;Signal;HPM_P1;HPM_P2
2020/12/19 00:00:56;;;;;;;14.50;10.23;;;;;;;;;;4979235;28;20201;-92
2020/12/19 00:03:23;;;;;;;14.43;9.77;;;;;;;;;;4978948;28;20278;-94
2020/12/19 00:05:50;;;;;;;16.33;11.40;;;;;;;;;;4979292;28;20196;-90
2020/12/19 00:08:20;;;;;;;15.57;10.93;;;;;;;;;;4978487;28;20216;-90
2020/12/19 00:10:47;;;;;;;19.73;11.73;;;;;;;;;;4980652;28;20272;-92
2020/12/19 00:13:17;;;;;;;14.05;10.15;;;;;;;;;;4982968;28;20196;-93
2020/12/19 00:15:44;;;;;;;16.83;11.25;;;;;;;;;;4982253;28;20605;-91
2020/12/19 00:18:12;;;;;;;23.13;12.35;;;;;;;;;;4982522;28;20255;-92
2020/12/19 00:20:39;;;;;;;22.45;12.77;;;;;;;;;;4982702;28;20197;-91
2020/12/19 00:23:06;;;;;;;13.48;9.82;;;;;;;;;;4982583;28;20209;-92
2020/12/19 00:25:33;;;;;;;16.55;10.98;;;;;;;;;;4982579;28;20573;-92
2020/12/19 00:28:00;;;;;;;13.10;10.90;;;;;;;;;;4982110;28;20227;-92
2020/12/19 00:30:28;;;;;;;15.20;10.73;;;;;;;;;;4982489;28;20267;-93
2020/12/19 00:32:55;;;;;;;16.60;11.52;;;;;;;;;;4982221;28;20184;-93
2020/12/19 00:35:26;;;;;;;13.60;10.30;;;;;;;;;;4982471;28;20208;-93
2020/12/19 00:37:53;;;;;;;17.20;12.68;;;;;;;;;;4982205;28;20470;-91
2020/12/19 00:40:20;;;;;;;16.60;12.15;;;;;;;;;;4982254;28;20315;-91
2020/12/19 00:42:47;;;;;;;15.35;11.45;;;;;;;;;;4983231;28;20513;-91
2020/12/19 00:45:13;;;;;;;16.25;12.70;;;;;;;;;;4982917;28;20311;-84
2020/12/19 00:47:40;;;;;;;14.98;11.45;;;;;;;;;;4972768;28;20231;-84
2020/12/19 00:50:09;;;;;;;17.02;12.07;;;;;;;;;;4970391;28;20468;-85
2020/12/19 00:52:37;;;;;;;16.95;12.50;;;;;;;;;;4972526;28;20197;-84
2020/12/19 00:55:06;;;;;;;17.38;11.98;;;;;;;;;;4970448;28;20547;-84
2020/12/19 00:57:34;;;;;;;14.57;11.93;;;;;;;;;;4973876;28;20280;-85
2020/12/19 01:00:03;;;;;;;15.27;13.13;;;;;;;;;;4968995;28;20182;-85
2020/12/19 01:02:30;;;;;;;14.85;12.02;;;;;;;;;;4969824;28;20504;-84
2020/12/19 01:04:57;;;;;;;14.50;11.38;;;;;;;;;;4984222;28;20561;-84
2020/12/19 01:07:24;;;;;;;15.55;12.25;;;;;;;;;;4993870;28;20200;-84
2020/12/19 01:09:52;;;;;;;16.50;13.02;;;;;;;;;;4974380;28;20197;-84
2020/12/19 01:12:19;;;;;;;19.23;13.45;;;;;;;;;;4970943;28;20661;-84
2020/12/19 01:14:46;;;;;;;16.33;14.20;;;;;;;;;;4971997;28;20228;-83
2020/12/19 01:17:13;;;;;;;22.50;15.80;;;;;;;;;;4970521;28;20273;-83
2020/12/19 01:19:39;;;;;;;23.38;15.32;;;;;;;;;;4969891;28;20251;-85
2020/12/19 01:22:07;;;;;;;15.38;12.63;;;;;;;;;;4963919;28;20215;-87
2020/12/19 01:24:34;;;;;;;16.98;13.35;;;;;;;;;;4962193;29;20204;-88
2020/12/19 01:27:01;;;;;;;18.60;14.55;;;;;;;;;;4969903;28;20214;-87
2020/12/19 01:29:28;;;;;;;20.15;15.02;;;;;;;;;;4979955;28;20224;-87
2020/12/19 01:31:55;;;;;;;21.23;15.20;;;;;;;;;;4980967;28;20197;-92
2020/12/19 01:34:22;;;;;;;19.42;15.30;;;;;;;;;;4984543;28;20637;-86
2020/12/19 01:36:49;;;;;;;17.90;13.90;;;;;;;;;;5000270;28;20190;-87
2020/12/19 01:39:16;;;;;;;20.50;15.70;;;;;;;;;;5000272;28;20200;-86
2020/12/19 01:41:43;;;;;;;18.88;14.00;;;;;;;;;;4999808;28;20477;-85
2020/12/19 01:44:12;;;;;;;18.23;15.60;;;;;;;;;;4999653;28;20199;-85
2020/12/19 01:46:53;;;;;;;20.13;15.75;;;;;;;;;;5000041;28;20203;-86
2020/12/19 01:49:20;;;;;;;19.02;15.88;;;;;;;;;;4999516;28;20655;-85
2020/12/19 01:51:52;;;;;;;18.35;15.57;;;;;;;;;;4983878;28;20476;-86
2020/12/19 01:54:20;;;;;;;16.55;14.25;;;;;;;;;;4980241;28;20189;-85
2020/12/19 01:56:57;;;;;;;19.77;15.13;;;;;;;;;;4980308;28;20275;-85
2020/12/19 01:59:28;;;;;;;18.73;14.57;;;;;;;;;;4980435;28;20198;-83
2020/12/19 02:01:56;;;;;;;20.00;15.98;;;;;;;;;;4979844;28;20493;-86
2020/12/19 02:04:25;;;;;;;28.67;16.77;;;;;;;;;;4980022;28;20473;-85
2020/12/19 02:06:53;;;;;;;17.80;14.05;;;;;;;;;;4980345;28;20188;-86
2020/12/19 02:09:23;;;;;;;16.95;14.00;;;;;;;;;;4980071;28;20463;-88
2020/12/19 02:11:50;;;;;;;20.83;16.17;;;;;;;;;;4979743;28;20258;-84
2020/12/19 02:14:17;;;;;;;20.33;16.10;;;;;;;;;;4979708;28;20185;-85
2020/12/19 02:16:59;;;;;;;18.08;15.98;;;;;;;;;;4980070;28;20395;-87
2020/12/19 02:19:27;;;;;;;20.10;15.50;;;;;;;;;;4931413;28;20200;-84
2020/12/19 02:21:55;;;;;;;18.65;14.50;;;;;;;;;;4979732;28;20333;-87
2020/12/19 02:24:26;;;;;;;20.00;15.32;;;;;;;;;;4980098;28;20180;-87
2020/12/19 02:26:55;;;;;;;21.75;16.50;;;;;;;;;;4979806;28;20235;-86
2020/12/19 02:29:23;;;;;;;19.85;14.85;;;;;;;;;;4979715;28;20220;-86
2020/12/19 02:31:50;;;;;;;18.05;14.43;;;;;;;;;;4980288;28;20193;-86
2020/12/19 02:34:18;;;;;;;19.55;15.18;;;;;;;;;;4979641;28;20469;-86
2020/12/19 02:36:45;;;;;;;19.63;16.15;;;;;;;;;;4979815;28;20199;-86
2020/12/19 02:39:12;;;;;;;17.77;14.35;;;;;;;;;;4931110;28;20196;-86
2020/12/19 02:41:41;;;;;;;17.70;14.10;;;;;;;;;;4979676;28;20197;-87
2020/12/19 02:44:12;;;;;;;19.15;15.25;;;;;;;;;;4979943;28;20206;-86
2020/12/19 02:46:39;;;;;;;19.05;15.00;;;;;;;;;;4980473;28;20461;-84
2020/12/19 02:49:06;;;;;;;17.48;13.88;;;;;;;;;;4979726;28;20220;-85
2020/12/19 02:51:33;;;;;;;15.45;12.90;;;;;;;;;;4979427;28;20263;-86
2020/12/19 02:54:00;;;;;;;17.70;13.27;;;;;;;;;;4980134;28;20208;-85
2020/12/19 02:56:27;;;;;;;17.17;12.85;;;;;;;;;;4979666;28;20220;-85
2020/12/19 02:58:55;;;;;;;17.52;14.00;;;;;;;;;;4979524;28;20181;-87
2020/12/19 03:01:27;;;;;;;18.88;14.27;;;;;;;;;;4979761;28;20185;-86
2020/12/19 03:03:54;;;;;;;17.73;13.48;;;;;;;;;;4980052;28;20216;-87
2020/12/19 03:06:22;;;;;;;18.77;14.38;;;;;;;;;;4979493;28;20181;-85
2020/12/19 03:08:49;;;;;;;18.52;13.75;;;;;;;;;;4979565;28;20226;-87
2020/12/19 03:11:16;;;;;;;18.15;13.50;;;;;;;;;;4979311;28;20204;-84
2020/12/19 03:13:43;;;;;;;18.52;13.57;;;;;;;;;;4979323;28;20184;-86
2020/12/19 03:16:10;;;;;;;16.58;12.98;;;;;;;;;;4978753;28;20228;-87
2020/12/19 03:18:37;;;;;;;19.73;14.20;;;;;;;;;;4980024;28;20188;-87
2020/12/19 03:21:04;;;;;;;17.55;13.20;;;;;;;;;;4980050;28;20208;-87
2020/12/19 03:23:31;;;;;;;15.57;12.68;;;;;;;;;;4978814;28;20214;-86
2020/12/19 03:25:58;;;;;;;18.10;12.93;;;;;;;;;;4979531;28;20176;-87
2020/12/19 03:28:25;;;;;;;15.98;12.75;;;;;;;;;;4979519;28;20226;-87
2020/12/19 03:30:52;;;;;;;17.23;13.70;;;;;;;;;;4979781;28;20478;-87
2020/12/19 03:33:20;;;;;;;18.48;13.95;;;;;;;;;;4979768;28;20469;-83
2020/12/19 03:35:47;;;;;;;18.67;14.75;;;;;;;;;;4979375;28;20573;-88
2020/12/19 03:38:14;;;;;;;18.20;14.05;;;;;;;;;;4979461;28;20195;-87
2020/12/19 03:40:40;;;;;;;15.18;12.07;;;;;;;;;;4979560;28;20181;-86
2020/12/19 03:43:07;;;;;;;22.38;13.93;;;;;;;;;;4979333;28;20192;-86
2020/12/19 03:45:34;;;;;;;19.27;14.52;;;;;;;;;;4979639;28;20220;-87
2020/12/19 03:48:01;;;;;;;17.15;13.73;;;;;;;;;;4983128;28;20210;-87
2020/12/19 03:50:29;;;;;;;17.33;12.73;;;;;;;;;;4983155;28;20212;-87
2020/12/19 03:52:56;;;;;;;18.77;14.00;;;;;;;;;;4983170;28;20188;-87
2020/12/19 03:55:23;;;;;;;16.77;13.20;;;;;;;;;;4983470;28;20201;-87
2020/12/19 03:57:50;;;;;;;19.75;13.38;;;;;;;;;;4983118;28;20177;-87
2020/12/19 04:00:17;;;;;;;15.82;12.75;;;;;;;;;;4982970;28;20189;-85
2020/12/19 04:02:44;;;;;;;19.95;13.98;;;;;;;;;;4982694;28;20609;-86
2020/12/19 04:05:11;;;;;;;16.85;12.75;;;;;;;;;;4982699;28;20187;-88
2020/12/19 04:07:40;;;;;;;17.63;12.52;;;;;;;;;;4983523;28;20211;-87
2020/12/19 04:10:08;;;;;;;16.65;14.05;;;;;;;;;;4982811;28;20543;-88
2020/12/19 04:12:35;;;;;;;15.55;11.68;;;;;;;;;;4982647;28;20189;-87
2020/12/19 04:15:03;;;;;;;15.85;11.98;;;;;;;;;;4982811;28;20232;-85
2020/12/19 04:17:30;;;;;;;17.50;13.38;;;;;;;;;;4982549;28;20243;-87
2020/12/19 04:19:58;;;;;;;15.80;11.98;;;;;;;;;;4982560;28;20202;-85
2020/12/19 04:22:25;;;;;;;16.67;12.57;;;;;;;;;;4982570;28;20193;-86
2020/12/19 04:24:52;;;;;;;15.85;12.32;;;;;;;;;;4983005;28;20204;-87
2020/12/19 04:27:19;;;;;;;18.48;12.68;;;;;;;;;;4982888;28;20188;-88
2020/12/19 04:29:46;;;;;;;21.13;14.98;;;;;;;;;;4982091;28;20232;-85
2020/12/19 04:32:13;;;;;;;19.35;14.18;;;;;;;;;;4981951;28;20197;-87
2020/12/19 04:34:40;;;;;;;17.27;13.60;;;;;;;;;;4982633;28;20214;-86
2020/12/19 04:37:08;;;;;;;18.50;13.25;;;;;;;;;;4982372;28;20572;-87
2020/12/19 04:39:35;;;;;;;16.85;12.77;;;;;;;;;;4982379;28;20193;-87
2020/12/19 04:42:03;;;;;;;17.05;13.02;;;;;;;;;;4982119;28;20482;-86
2020/12/19 04:44:30;;;;;;;16.50;13.20;;;;;;;;;;4982322;28;20496;-89
2020/12/19 04:46:58;;;;;;;18.38;12.55;;;;;;;;;;4982338;28;20255;-89
2020/12/19 04:49:25;;;;;;;17.23;14.35;;;;;;;;;;4982209;28;20224;-89
2020/12/19 04:51:52;;;;;;;16.85;12.55;;;;;;;;;;4982165;28;20184;-87
2020/12/19 04:54:19;;;;;;;20.60;14.40;;;;;;;;;;4981909;28;20181;-90
2020/12/19 04:56:46;;;;;;;15.45;12.10;;;;;;;;;;4981626;28;20201;-89
2020/12/19 04:59:14;;;;;;;19.13;14.40;;;;;;;;;;4981930;28;20185;-85
2020/12/19 05:01:41;;;;;;;18.40;13.85;;;;;;;;;;4982090;28;20200;-88
2020/12/19 05:04:14;;;;;;;14.23;11.05;;;;;;;;;;4982665;28;20193;-88
2020/12/19 05:06:41;;;;;;;13.57;12.00;;;;;;;;;;4981582;28;20181;-87
2020/12/19 05:09:10;;;;;;;17.52;13.25;;;;;;;;;;4981651;28;20218;-88
2020/12/19 05:11:37;;;;;;;16.67;12.98;;;;;;;;;;4981785;28;20247;-87
2020/12/19 05:14:05;;;;;;;15.50;12.25;;;;;;;;;;4981211;28;20485;-87
2020/12/19 05:16:34;;;;;;;15.82;12.90;;;;;;;;;;4982165;28;20278;-87
2020/12/19 05:19:08;;;;;;;15.85;12.88;;;;;;;;;;4982154;28;20197;-87
2020/12/19 05:21:44;;;;;;;15.63;12.35;;;;;;;;;;4981670;28;20204;-87
2020/12/19 05:24:14;;;;;;;14.70;11.80;;;;;;;;;;4982392;28;20203;-87
2020/12/19 05:26:41;;;;;;;16.30;13.25;;;;;;;;;;4981673;28;20535;-87
2020/12/19 05:29:08;;;;;;;15.27;12.50;;;;;;;;;;4981661;28;20477;-86
2020/12/19 05:31:36;;;;;;;17.08;11.82;;;;;;;;;;4981722;28;20199;-89
2020/12/19 05:34:05;;;;;;;17.33;13.60;;;;;;;;;;4981048;28;20543;-88
2020/12/19 05:36:38;;;;;;;17.23;12.95;;;;;;;;;;4981085;28;20177;-85
2020/12/19 05:39:06;;;;;;;16.58;13.85;;;;;;;;;;4980965;28;20181;-88
2020/12/19 05:41:33;;;;;;;15.10;12.07;;;;;;;;;;4981154;28;20275;-88
2020/12/19 05:44:00;;;;;;;16.33;12.15;;;;;;;;;;4981160;28;20191;-86
2020/12/19 05:46:32;;;;;;;16.42;13.20;;;;;;;;;;4980726;28;20227;-89
2020/12/19 05:49:02;;;;;;;14.60;12.80;;;;;;;;;;4980933;28;20321;-88
2020/12/19 05:51:32;;;;;;;15.70;12.65;;;;;;;;;;4980901;28;20199;-88
2020/12/19 05:54:02;;;;;;;16.35;12.55;;;;;;;;;;4981172;28;20201;-88
2020/12/19 05:56:30;;;;;;;18.80;14.70;;;;;;;;;;4980688;28;20184;-86
2020/12/19 05:59:01;;;;;;;17.25;13.50;;;;;;;;;;4980881;28;20189;-89
2020/12/19 06:01:28;;;;;;;16.52;12.35;;;;;;;;;;4980821;28;20188;-88
2020/12/19 06:03:56;;;;;;;15.50;12.57;;;;;;;;;;4980918;28;20201;-88
2020/12/19 06:06:24;;;;;;;17.52;14.15;;;;;;;;;;4981061;28;20456;-89
2020/12/19 06:08:52;;;;;;;16.73;12.75;;;;;;;;;;4979691;28;20202;-88
2020/12/19 06:11:22;;;;;;;16.02;13.65;;;;;;;;;;4980485;28;20215;-88
2020/12/19 06:13:53;;;;;;;16.30;13.20;;;;;;;;;;4980765;28;20235;-88
2020/12/19 06:16:20;;;;;;;14.98;12.13;;;;;;;;;;4980267;28;20236;-88
2020/12/19 06:19:09;;;;;;;15.75;12.95;;;;;;;;;;4980283;28;20191;-88
2020/12/19 06:21:37;;;;;;;17.75;12.63;;;;;;;;;;4980807;28;20261;-87
2020/12/19 06:24:04;;;;;;;17.25;12.48;;;;;;;;;;4980545;28;20199;-89
2020/12/19 06:26:38;;;;;;;14.95;11.57;;;;;;;;;;4981237;28;20196;-90
2020/12/19 06:29:06;;;;;;;14.10;12.15;;;;;;;;;;4980554;28;20191;-91
2020/12/19 06:31:33;;;;;;;15.13;11.93;;;;;;;;;;4980234;28;20617;-89
2020/12/19 06:34:04;;;;;;;15.50;12.07;;;;;;;;;;4979947;28;20295;-90
2020/12/19 06:36:33;;;;;;;15.07;11.68;;;;;;;;;;4980458;28;20204;-90
2020/12/19 06:39:10;;;;;;;14.38;10.75;;;;;;;;;;4980370;28;20283;-90
2020/12/19 06:41:55;;;;;;;13.90;11.73;;;;;;;;;;4981119;28;20208;-91
2020/12/19 06:44:33;;;;;;;14.60;11.40;;;;;;;;;;4980154;28;20205;-90
2020/12/19 06:47:02;;;;;;;12.60;10.18;;;;;;;;;;4980228;28;20576;-89
2020/12/19 06:49:35;;;;;;;15.20;11.95;;;;;;;;;;4979989;28;20189;-90
2020/12/19 06:52:06;;;;;;;15.50;12.55;;;;;;;;;;4980367;28;20192;-89
2020/12/19 06:54:37;;;;;;;14.95;11.50;;;;;;;;;;4980218;28;20247;-90
2020/12/19 06:57:05;;;;;;;14.57;11.90;;;;;;;;;;4980184;28;20555;-88
2020/12/19 06:59:34;;;;;;;17.45;13.65;;;;;;;;;;4979851;28;20181;-88
2020/12/19 07:02:15;;;;;;;19.10;14.60;;;;;;;;;;4979881;28;20313;-87
2020/12/19 07:04:42;;;;;;;24.42;14.32;;;;;;;;;;4980188;28;20185;-88
2020/12/19 07:07:10;;;;;;;18.40;13.07;;;;;;;;;;4979881;28;20191;-89
2020/12/19 07:09:57;;;;;;;19.13;14.73;;;;;;;;;;4980333;28;20255;-89
2020/12/19 07:12:35;;;;;;;19.02;12.60;;;;;;;;;;4979911;28;20242;-89
2020/12/19 07:15:04;;;;;;;16.67;13.68;;;;;;;;;;4979354;28;20251;-90
2020/12/19 07:17:45;;;;;;;15.15;12.05;;;;;;;;;;4979698;28;20181;-89
2020/12/19 07:20:12;;;;;;;16.38;13.23;;;;;;;;;;4979220;28;20188;-88
2020/12/19 07:22:39;;;;;;;17.05;12.23;;;;;;;;;;4979279;28;20580;-88
2020/12/19 07:25:07;;;;;;;13.07;10.32;;;;;;;;;;4979813;28;20192;-88
2020/12/19 07:27:34;;;;;;;14.57;12.07;;;;;;;;;;4980086;28;20205;-88
2020/12/19 07:30:01;;;;;;;13.32;11.20;;;;;;;;;;4979303;28;20288;-88
2020/12/19 07:32:29;;;;;;;12.63;11.23;;;;;;;;;;4979338;28;20193;-89
2020/12/19 07:34:58;;;;;;;13.60;10.40;;;;;;;;;;4979820;28;20204;-90
2020/12/19 07:37:25;;;;;;;13.15;10.43;;;;;;;;;;4980085;28;20213;-94
2020/12/19 07:40:05;;;;;;;14.95;12.60;;;;;;;;;;4980511;28;20488;-90
2020/12/19 07:42:33;;;;;;;14.13;10.18;;;;;;;;;;4980003;28;20211;-91
2020/12/19 07:45:00;;;;;;;13.50;12.05;;;;;;;;;;4979305;28;20231;-90
2020/12/19 07:47:27;;;;;;;12.93;11.73;;;;;;;;;;4979943;28;20196;-90
2020/12/19 07:49:54;;;;;;;12.23;10.20;;;;;;;;;;4979350;28;20208;-91
2020/12/19 07:52:22;;;;;;;13.60;11.13;;;;;;;;;;4979227;28;20464;-92
2020/12/19 07:55:00;;;;;;;12.07;9.88;;;;;;;;;;4980097;28;20208;-91
2020/12/19 07:57:29;;;;;;;12.05;10.57;;;;;;;;;;4979223;28;20184;-92
2020/12/19 07:59:58;;;;;;;13.15;11.00;;;;;;;;;;4979902;28;20193;-91
2020/12/19 08:02:26;;;;;;;10.23;8.70;;;;;;;;;;4979410;28;20213;-90
2020/12/19 08:04:55;;;;;;;10.65;9.27;;;;;;;;;;4979114;28;20184;-91
2020/12/19 08:07:27;;;;;;;10.45;9.02;;;;;;;;;;4979359;28;20223;-93
2020/12/19 08:10:03;;;;;;;9.77;8.77;;;;;;;;;;4979301;28;20291;-93
2020/12/19 08:12:30;;;;;;;12.60;9.55;;;;;;;;;;4979772;28;20207;-92
2020/12/19 08:15:00;;;;;;;11.82;9.02;;;;;;;;;;4979256;28;20236;-92
2020/12/19 08:17:30;;;;;;;11.05;9.32;;;;;;;;;;4979296;28;20197;-92
2020/12/19 08:19:58;;;;;;;36.67;10.68;;;;;;;;;;4979533;28;20180;-93
2020/12/19 08:22:34;;;;;;;10.95;9.85;;;;;;;;;;4979972;28;20207;-94
2020/12/19 08:25:02;;;;;;;13.13;10.00;;;;;;;;;;4979167;28;20264;-94
2020/12/19 08:27:43;;;;;;;11.23;8.63;;;;;;;;;;4980168;28;20208;-88
2020/12/19 08:30:14;;;;;;;12.65;10.52;;;;;;;;;;4979000;28;20240;-89
2020/12/19 08:32:46;;;;;;;12.52;9.95;;;;;;;;;;4982683;28;20196;-95
2020/12/19 08:35:22;;;;;;;13.80;11.02;;;;;;;;;;4983097;28;20220;-94
2020/12/19 08:38:01;;;;;;;12.13;9.82;;;;;;;;;;4983311;28;20204;-94
2020/12/19 08:40:38;;;;;;;12.40;10.43;;;;;;;;;;4983126;28;20207;-92
2020/12/19 08:43:06;;;;;;;12.63;9.57;;;;;;;;;;4982244;28;20181;-91
2020/12/19 08:45:35;;;;;;;10.52;9.30;;;;;;;;;;4982514;28;20548;-93
2020/12/19 08:48:08;;;;;;;10.20;9.20;;;;;;;;;;4982966;28;20201;-92
2020/12/19 08:50:41;;;;;;;13.07;10.20;;;;;;;;;;4982513;28;20234;-94
2020/12/19 08:53:11;;;;;;;11.05;8.88;;;;;;;;;;4982245;28;20195;-92
2020/12/19 08:55:39;;;;;;;13.05;11.10;;;;;;;;;;4982556;28;20634;-94
2020/12/19 08:58:07;;;;;;;12.90;10.40;;;;;;;;;;4982466;28;20200;-94
2020/12/19 09:00:39;;;;;;;11.93;10.27;;;;;;;;;;4982364;28;20208;-91
2020/12/19 09:03:09;;;;;;;10.60;9.50;;;;;;;;;;4982639;28;20199;-92
2020/12/19 09:05:42;;;;;;;12.90;9.68;;;;;;;;;;4982264;28;20578;-92
2020/12/19 09:08:10;;;;;;;12.85;11.27;;;;;;;;;;4985037;28;20197;-90
2020/12/19 09:10:39;;;;;;;12.13;10.80;;;;;;;;;;4975053;28;20216;-89
2020/12/19 09:13:15;;;;;;;18.30;11.20;;;;;;;;;;4974131;28;20207;-90
2020/12/19 09:15:44;;;;;;;17.63;12.55;;;;;;;;;;4969608;28;20509;-91
2020/12/19 09:18:17;;;;;;;14.70;10.70;;;;;;;;;;4969985;28;20280;-92
2020/12/19 09:20:45;;;;;;;14.43;12.45;;;;;;;;;;4970873;28;20190;-92
2020/12/19 09:23:14;;;;;;;13.75;11.63;;;;;;;;;;4973967;28;20197;-94
2020/12/19 09:25:45;;;;;;;12.43;10.88;;;;;;;;;;4975761;28;20208;-92
2020/12/19 09:28:12;;;;;;;11.00;9.85;;;;;;;;;;4971518;28;20194;-93
2020/12/19 09:30:39;;;;;;;11.95;10.45;;;;;;;;;;4985690;28;20474;-92
2020/12/19 09:33:07;;;;;;;11.70;9.75;;;;;;;;;;4970373;28;20204;-92
2020/12/19 09:35:34;;;;;;;10.80;8.82;;;;;;;;;;4971469;28;20192;-94
2020/12/19 09:38:25;;;;;;;10.60;9.02;;;;;;;;;;4967180;28;20201;-93
2020/12/19 09:40:55;;;;;;;11.07;9.80;;;;;;;;;;4958700;28;20201;-90
2020/12/19 09:43:22;;;;;;;12.70;10.10;;;;;;;;;;4981823;28;20350;-88
2020/12/19 09:45:49;;;;;;;10.82;9.38;;;;;;;;;;4981307;28;20587;-94
2020/12/19 09:48:20;;;;;;;10.38;9.32;;;;;;;;;;4978502;28;20200;-92
2020/12/19 09:50:47;;;;;;;10.07;9.02;;;;;;;;;;4980974;28;20467;-91
2020/12/19 09:53:14;;;;;;;11.02;8.50;;;;;;;;;;4980516;28;20275;-89
2020/12/19 09:55:41;;;;;;;11.32;9.52;;;;;;;;;;4979199;28;20279;-90
2020/12/19 09:58:08;;;;;;;9.40;8.38;;;;;;;;;;4969607;28;20193;-91
2020/12/19 10:00:35;;;;;;;9.90;8.90;;;;;;;;;;4972722;28;20197;-91
2020/12/19 10:03:02;;;;;;;10.13;9.05;;;;;;;;;;4972512;28;20447;-91
2020/12/19 10:05:31;;;;;;;10.48;9.07;;;;;;;;;;4969848;28;20204;-93
2020/12/19 10:08:06;;;;;;;9.73;7.75;;;;;;;;;;4973374;28;20547;-92
2020/12/19 10:10:34;;;;;;;10.15;8.32;;;;;;;;;;4976553;28;20208;-91
2020/12/19 10:13:01;;;;;;;8.77;7.88;;;;;;;;;;4974048;28;20225;-86
2020/12/19 10:15:31;;;;;;;8.85;7.63;;;;;;;;;;4973978;28;20314;-91
2020/12/19 10:17:58;;;;;;;9.68;8.35;;;;;;;;;;4974909;28;20284;-87
2020/12/19 10:20:25;;;;;;;9.80;8.23;;;;;;;;;;4969386;28;20198;-92
2020/12/19 10:22:56;;;;;;;10.77;8.45;;;;;;;;;;4972175;28;20211;-92
2020/12/19 10:25:23;;;;;;;11.40;9.27;;;;;;;;;;4967094;28;20197;-91
2020/12/19 10:27:53;;;;;;;9.20;7.90;;;;;;;;;;4970650;28;20275;-92
2020/12/19 10:30:20;;;;;;;9.68;7.95;;;;;;;;;;4971334;28;20197;-94
2020/12/19 10:33:15;;;;;;;7.07;6.38;;;;;;;;;;4971269;28;20209;-92
2020/12/19 10:35:42;;;;;;;8.80;6.95;;;;;;;;;;4979503;28;20204;-89
2020/12/19 10:38:10;;;;;;;9.90;7.40;;;;;;;;;;4980344;28;20192;-91
2020/12/19 10:40:37;;;;;;;8.63;7.10;;;;;;;;;;4980341;28;20281;-92
2020/12/19 10:43:04;;;;;;;9.05;7.50;;;;;;;;;;4980393;28;20199;-93
2020/12/19 10:45:31;;;;;;;15.13;7.70;;;;;;;;;;4980125;28;20310;-88
2020/12/19 10:47:58;;;;;;;7.63;6.40;;;;;;;;;;4980335;28;20284;-89
2020/12/19 10:50:25;;;;;;;8.35;7.55;;;;;;;;;;4978092;28;20204;-89
2020/12/19 10:52:52;;;;;;;7.07;6.38;;;;;;;;;;4972555;28;20216;-92
2020/12/19 10:55:42;;;;;;;8.70;7.07;;;;;;;;;;4979275;28;20264;-93
2020/12/19 10:58:15;;;;;;;7.40;6.68;;;;;;;;;;4980536;28;20204;-92
2020/12/19 11:00:45;;;;;;;9.05;8.15;;;;;;;;;;4980321;28;20181;-94
2020/12/19 11:03:12;;;;;;;8.68;7.88;;;;;;;;;;4979274;28;20335;-89
2020/12/19 11:05:40;;;;;;;8.07;6.75;;;;;;;;;;4979142;28;20224;-86
2020/12/19 11:08:07;;;;;;;7.53;6.50;;;;;;;;;;4979324;28;20270;-90
2020/12/19 11:10:34;;;;;;;8.43;6.57;;;;;;;;;;4979186;28;20181;-89
2020/12/19 11:13:03;;;;;;;7.20;6.50;;;;;;;;;;4978493;28;20220;-90
2020/12/19 11:15:32;;;;;;;6.97;6.28;;;;;;;;;;4980068;28;20239;-94
2020/12/19 11:22:14;;;;;;;7.53;6.72;;;;;;;;;;4971776;28;20247;-90
2020/12/19 11:35:09;;;;;;;6.78;6.07;;;;;;;;;;4967718;28;20184;-95
2020/12/19 11:45:48;;;;;;;7.10;5.97;;;;;;;;;;4911725;29;20237;-90
2020/12/19 12:00:24;;;;;;;6.82;6.10;;;;;;;;;;4852911;29;20216;-93
2020/12/19 12:11:02;;;;;;;;;;;;;;;;;;;;;
2020/12/19 12:21:26;;;;;;;5.63;4.97;;;;;;;;;;4810170;29;20254;-89
2020/12/19 12:31:26;;;;;;;6.00;4.57;;;;;;;;;;4805773;29;20591;-89
2020/12/19 12:41:30;;;;;;;4.20;3.88;;;;;;;;;;4898488;29;20198;-89
2020/12/19 12:47:39;;;;;;;4.32;3.92;;;;;;;;;;4943769;29;20252;-91
2020/12/19 12:50:06;;;;;;;5.85;5.13;;;;;;;;;;4943512;29;20221;-93
2020/12/19 12:52:33;;;;;;;4.55;4.15;;;;;;;;;;4943595;29;20236;-95
2020/12/19 12:58:42;;;;;;;4.15;3.80;;;;;;;;;;4928215;29;20206;-91
2020/12/19 13:04:51;;;;;;;4.35;3.95;;;;;;;;;;4951654;29;20257;-90
2020/12/19 13:11:00;;;;;;;4.97;4.22;;;;;;;;;;4951213;29;20232;-90
2020/12/19 13:28:09;;;;;;;4.72;4.32;;;;;;;;;;4890950;29;20190;-91
2020/12/19 13:34:17;;;;;;;;;;;;;;;;;;;;;
2020/12/19 13:40:47;;;;;;;4.57;4.18;;;;;;;;;;4879130;29;20226;-90
2020/12/19 13:46:56;;;;;;;5.00;4.47;;;;;;;;;;4866120;29;20501;-92
2020/12/19 13:59:27;;;;;;;5.45;4.00;;;;;;;;;;4820631;29;20539;-92
2020/12/19 14:05:35;;;;;;;5.78;4.75;;;;;;;;;;4872849;29;20469;-92
2020/12/19 14:15:25;;;;;;;5.93;5.28;;;;;;;;;;4872370;29;20214;-92
2020/12/19 14:21:58;;;;;;;4.75;4.20;;;;;;;;;;4845988;29;20240;-94
2020/12/19 14:24:26;;;;;;;5.75;4.25;;;;;;;;;;4847042;29;20284;-94
2020/12/19 14:26:53;;;;;;;4.22;3.88;;;;;;;;;;4847703;29;20397;-92
2020/12/19 14:29:20;;;;;;;5.32;4.57;;;;;;;;;;4847017;29;20284;-93
2020/12/19 14:31:48;;;;;;;5.53;4.78;;;;;;;;;;4846984;29;20204;-93
2020/12/19 14:34:15;;;;;;;5.28;3.47;;;;;;;;;;4847148;29;20225;-91
2020/12/19 14:40:23;;;;;;;5.00;4.10;;;;;;;;;;4846954;29;20188;-95
2020/12/19 14:51:15;;;;;;;3.92;3.53;;;;;;;;;;4865654;29;20207;-93
2020/12/19 14:53:44;;;;;;;3.95;3.65;;;;;;;;;;4828233;29;20229;-93
2020/12/19 14:56:13;;;;;;;6.50;3.42;;;;;;;;;;4827926;29;20229;-93
2020/12/19 14:58:42;;;;;;;4.10;3.70;;;;;;;;;;4828463;29;20461;-94
2020/12/19 15:01:11;;;;;;;3.60;3.28;;;;;;;;;;4828532;29;20224;-93
2020/12/19 15:17:46;;;;;;;3.72;3.42;;;;;;;;;;4843476;29;20257;-88
2020/12/19 15:20:13;;;;;;;3.88;3.50;;;;;;;;;;4848476;29;20209;-91
2020/12/19 15:22:40;;;;;;;3.50;3.20;;;;;;;;;;4862284;29;20209;-90
2020/12/19 15:33:19;;;;;;;3.17;2.80;;;;;;;;;;4871603;29;20487;-86
2020/12/19 15:39:27;;;;;;;3.35;3.03;;;;;;;;;;4874698;29;20199;-88
2020/12/19 15:49:32;;;;;;;3.58;3.28;;;;;;;;;;4877836;29;20202;-85
2020/12/19 15:55:40;;;;;;;5.70;3.50;;;;;;;;;;4875326;29;20214;-87
2020/12/19 16:05:46;;;;;;;4.20;3.28;;;;;;;;;;4944397;29;20189;-89
2020/12/19 16:08:13;;;;;;;3.60;3.25;;;;;;;;;;4944503;29;20209;-89
2020/12/19 16:10:40;;;;;;;9.52;3.20;;;;;;;;;;4944616;29;20566;-89
2020/12/19 16:13:07;;;;;;;3.67;3.30;;;;;;;;;;4944462;29;20220;-92
2020/12/19 16:15:34;;;;;;;3.83;3.50;;;;;;;;;;4944795;29;20200;-88
2020/12/19 16:18:02;;;;;;;4.05;3.70;;;;;;;;;;4943544;29;20218;-88
2020/12/19 16:20:29;;;;;;;4.55;3.65;;;;;;;;;;4944722;29;20324;-89
2020/12/19 16:22:56;;;;;;;4.50;3.53;;;;;;;;;;4945020;29;20194;-90
2020/12/19 16:25:23;;;;;;;4.65;3.20;;;;;;;;;;4943994;29;20193;-88
2020/12/19 16:27:50;;;;;;;4.03;3.35;;;;;;;;;;4943885;29;20202;-89
2020/12/19 16:30:17;;;;;;;4.00;3.60;;;;;;;;;;4943471;29;20206;-89
2020/12/19 16:32:46;;;;;;;3.55;3.25;;;;;;;;;;4944145;29;20245;-88
2020/12/19 16:35:13;;;;;;;4.43;3.47;;;;;;;;;;4944204;29;20277;-89
2020/12/19 16:37:41;;;;;;;5.32;4.03;;;;;;;;;;4944518;29;20285;-88
2020/12/19 16:40:09;;;;;;;3.47;3.15;;;;;;;;;;4944786;29;20190;-86
2020/12/19 16:42:36;;;;;;;3.10;2.83;;;;;;;;;;4944221;29;20192;-87
2020/12/19 16:45:03;;;;;;;3.50;3.17;;;;;;;;;;4943865;29;20480;-87
2020/12/19 16:47:30;;;;;;;4.35;3.42;;;;;;;;;;4943475;29;20222;-87
2020/12/19 16:49:57;;;;;;;5.25;3.08;;;;;;;;;;4943591;29;20182;-87
2020/12/19 16:52:24;;;;;;;4.18;3.78;;;;;;;;;;4909941;29;20639;-87
2020/12/19 16:54:51;;;;;;;3.38;3.08;;;;;;;;;;4894444;29;20236;-85
2020/12/19 16:57:19;;;;;;;3.30;3.10;;;;;;;;;;4938561;29;20225;-87
2020/12/19 16:59:46;;;;;;;4.72;4.32;;;;;;;;;;4918281;29;20296;-89
2020/12/19 17:02:13;;;;;;;4.78;2.88;;;;;;;;;;4924018;29;20194;-90
2020/12/19 17:04:40;;;;;;;6.05;3.22;;;;;;;;;;4925141;29;20225;-89
2020/12/19 17:07:07;;;;;;;4.10;3.72;;;;;;;;;;4924484;29;20197;-89
2020/12/19 17:09:34;;;;;;;4.00;3.30;;;;;;;;;;4924118;29;20209;-89
2020/12/19 17:12:01;;;;;;;3.38;3.08;;;;;;;;;;4924631;29;20202;-90
2020/12/19 17:14:29;;;;;;;3.95;3.35;;;;;;;;;;4923906;29;20308;-88
2020/12/19 17:16:59;;;;;;;4.70;3.83;;;;;;;;;;4923997;29;20477;-92
2020/12/19 17:19:26;;;;;;;4.55;4.18;;;;;;;;;;4924133;29;20557;-90
2020/12/19 17:21:53;;;;;;;3.65;3.30;;;;;;;;;;4923852;29;20241;-89
2020/12/19 17:24:19;;;;;;;4.07;3.63;;;;;;;;;;4926014;29;20210;-85
2020/12/19 17:26:46;;;;;;;7.32;3.92;;;;;;;;;;4932257;29;20510;-91
2020/12/19 17:29:13;;;;;;;4.40;3.78;;;;;;;;;;4927171;29;20280;-91
2020/12/19 17:31:41;;;;;;;4.15;3.53;;;;;;;;;;4925244;29;20198;-91
2020/12/19 17:34:09;;;;;;;3.95;3.30;;;;;;;;;;4930938;29;20300;-93
2020/12/19 17:36:37;;;;;;;3.80;3.50;;;;;;;;;;4927014;29;20229;-90
2020/12/19 17:39:04;;;;;;;4.40;3.90;;;;;;;;;;4923765;29;20203;-90
2020/12/19 17:41:33;;;;;;;4.60;3.67;;;;;;;;;;4929810;29;20194;-91
2020/12/19 17:44:01;;;;;;;8.68;5.40;;;;;;;;;;4937703;29;20220;-92
2020/12/19 17:46:28;;;;;;;3.83;3.53;;;;;;;;;;4936186;29;20270;-92